Time;durP1;ratioP1;P1;durP2;ratioP2;P2;SDS_P1;SDS_P2;PMS_P1;PMS_P2;Temp;Humidity;BMP_temperature;BMP_pressure;BME280_temperature;BME280_humidity;BME280_pressure;Samples;Min_cycle;Max_cycle;Signal;HPM_P1;HPM_P2
2022/03/21 00:01:17;;;;;;;30.47;13.30;;;;;;;-1.34;69.56;102465.34;5010650;28;20018;-78
2022/03/21 00:03:42;;;;;;;27.50;12.20;;;;;;;-1.24;69.29;102458.06;5011919;28;20137;-75
2022/03/21 00:06:08;;;;;;;21.30;11.57;;;;;;;-1.20;68.38;102437.41;5011855;28;20101;-75
2022/03/21 00:08:34;;;;;;;23.10;11.87;;;;;;;-1.40;67.84;102397.09;5011998;28;20037;-73
2022/03/21 00:11:00;;;;;;;20.70;10.83;;;;;;;-1.27;66.65;102395.97;5011735;28;20460;-76
2022/03/21 00:13:26;;;;;;;24.43;10.60;;;;;;;-1.23;65.89;102432.00;5011743;28;20026;-74
2022/03/21 00:15:53;;;;;;;24.93;13.00;;;;;;;-1.09;66.79;102445.38;5011759;28;20128;-74
2022/03/21 00:18:20;;;;;;;22.43;11.40;;;;;;;-1.21;67.23;102439.78;5012119;28;20400;-74
2022/03/21 00:20:47;;;;;;;21.67;11.07;;;;;;;-1.76;66.82;102394.59;5009321;28;20069;-75
2022/03/21 00:23:13;;;;;;;23.80;11.63;;;;;;;-1.36;67.07;102443.97;5011581;28;20381;-73
2022/03/21 00:25:39;;;;;;;22.13;11.80;;;;;;;-1.71;67.31;102438.22;5011596;28;20040;-75
2022/03/21 00:28:07;;;;;;;47.37;22.30;;;;;;;-1.90;67.02;102451.22;5011835;28;20048;-75
2022/03/21 00:30:34;;;;;;;27.03;14.40;;;;;;;-2.09;67.03;102445.59;5011624;28;20037;-75
2022/03/21 00:33:00;;;;;;;20.77;10.40;;;;;;;-2.43;68.09;102444.06;5011725;28;20029;-74
2022/03/21 00:35:27;;;;;;;20.33;10.40;;;;;;;-2.64;68.53;102433.16;5013219;28;20083;-74
2022/03/21 00:37:53;;;;;;;19.33;10.00;;;;;;;-2.80;69.17;102427.88;5011602;28;20022;-73
2022/03/21 00:40:18;;;;;;;17.27;9.93;;;;;;;-3.15;70.86;102438.72;5011440;28;20048;-74
2022/03/21 00:42:46;;;;;;;18.90;9.60;;;;;;;-3.42;72.15;102411.84;5011074;28;20025;-74
2022/03/21 00:45:16;;;;;;;22.90;10.23;;;;;;;-3.28;72.80;102428.69;5011332;28;20027;-74
2022/03/21 00:47:43;;;;;;;17.10;9.50;;;;;;;-3.30;72.76;102431.03;5011395;28;20045;-74
2022/03/21 00:50:10;;;;;;;18.03;9.83;;;;;;;-3.60;73.26;102423.06;5010731;28;20088;-74
2022/03/21 00:52:44;;;;;;;17.50;9.77;;;;;;;-3.66;74.17;102425.75;5009568;28;20532;-77
2022/03/21 00:55:10;;;;;;;20.33;10.73;;;;;;;-3.54;73.64;102436.44;5011410;28;20057;-77
2022/03/21 00:57:40;;;;;;;18.37;13.30;;;;;;;-3.84;72.61;102361.22;5011181;28;20468;-77
2022/03/21 01:00:08;;;;;;;23.60;14.75;;;;;;;-3.76;72.37;102400.06;5011376;28;20022;-74
2022/03/21 01:02:37;;;;;;;19.30;12.67;;;;;;;-3.61;71.88;102413.72;5010945;28;20022;-75
2022/03/21 01:05:04;;;;;;;20.90;11.32;;;;;;;-3.47;71.33;102418.84;5010680;28;20080;-77
2022/03/21 01:07:30;;;;;;;21.73;10.93;;;;;;;-3.46;70.14;102380.25;5010987;28;20830;-76
2022/03/21 01:09:55;;;;;;;18.17;10.60;;;;;;;-3.00;69.54;102422.03;5025015;28;20080;-76
2022/03/21 01:12:21;;;;;;;16.50;10.00;;;;;;;-2.67;68.32;102416.72;5010563;28;20060;-76
2022/03/21 01:14:46;;;;;;;18.43;9.60;;;;;;;-2.48;67.78;102410.66;5010928;28;20029;-76
2022/03/21 01:17:12;;;;;;;16.83;10.20;;;;;;;-2.29;66.92;102417.91;5010597;28;20431;-74
2022/03/21 01:19:37;;;;;;;16.13;9.70;;;;;;;-2.45;66.25;102352.81;5013698;28;20064;-77
2022/03/21 01:22:03;;;;;;;18.77;9.43;;;;;;;-2.07;71.16;102412.88;5030472;28;20066;-77
2022/03/21 01:24:28;;;;;;;18.53;10.90;;;;;;;-2.41;76.11;102370.91;5031017;28;20025;-76
2022/03/21 01:26:54;;;;;;;20.03;10.33;;;;;;;-2.24;78.49;102396.59;5030986;28;20464;-77
2022/03/21 01:29:19;;;;;;;18.13;9.87;;;;;;;-2.12;76.99;102419.91;5030997;28;20029;-76
2022/03/21 01:31:44;;;;;;;18.63;9.97;;;;;;;-2.13;76.94;102408.91;5030631;28;20090;-76
2022/03/21 01:34:10;;;;;;;17.77;9.67;;;;;;;-2.00;78.07;102406.19;5030445;28;20030;-77
2022/03/21 01:36:36;;;;;;;20.30;11.40;;;;;;;-2.02;77.78;102414.31;5031240;28;20037;-76
2022/03/21 01:39:02;;;;;;;16.77;10.00;;;;;;;-2.04;76.22;102404.03;5030835;28;20139;-77
2022/03/21 01:41:28;;;;;;;18.20;10.43;;;;;;;-2.26;70.47;102415.75;5030785;28;20025;-77
2022/03/21 01:43:56;;;;;;;18.10;9.87;;;;;;;-2.73;70.00;102416.88;5030841;28;20087;-77
2022/03/21 01:46:22;;;;;;;17.30;9.57;;;;;;;-2.90;69.88;102392.09;5030707;28;20670;-76
2022/03/21 01:48:47;;;;;;;19.10;10.87;;;;;;;-3.03;69.86;102404.81;5030286;28;20040;-76
2022/03/21 01:51:12;;;;;;;18.23;9.90;;;;;;;-2.65;69.19;102435.53;5030565;28;20465;-76
2022/03/21 01:56:23;;;;;;;16.73;10.30;;;;;;;-2.69;69.83;102428.25;5030549;28;20096;-76
2022/03/21 01:58:49;;;;;;;19.00;9.73;;;;;;;-3.05;70.26;102391.13;5030765;28;20080;-76
2022/03/21 02:01:14;;;;;;;19.90;9.43;;;;;;;-3.20;70.09;102410.34;5030049;28;20082;-76
2022/03/21 02:03:40;;;;;;;21.10;9.57;;;;;;;-3.21;71.04;102426.22;5029398;28;20040;-76
2022/03/21 02:06:05;;;;;;;20.03;10.37;;;;;;;-3.11;71.53;102436.75;5030528;28;20026;-76
2022/03/21 02:08:31;;;;;;;20.53;9.33;;;;;;;-3.06;71.30;102414.56;5030648;28;20480;-76
2022/03/21 02:10:56;;;;;;;17.73;9.23;;;;;;;-2.97;70.97;102430.84;5030257;28;20033;-76
2022/03/21 02:13:23;;;;;;;15.80;9.00;;;;;;;-3.03;71.79;102435.16;5030554;28;20032;-76
2022/03/21 02:15:48;;;;;;;17.37;9.00;;;;;;;-3.02;71.80;102442.03;5021641;28;20115;-77
2022/03/21 02:18:17;;;;;;;17.50;9.73;;;;;;;-3.49;72.18;102424.41;5010850;28;20465;-76
2022/03/21 02:20:44;;;;;;;19.75;9.38;;;;;;;-3.58;72.86;102427.63;5010636;28;20026;-76
2022/03/21 02:23:16;;;;;;;17.43;9.13;;;;;;;-3.50;73.11;102438.66;5010772;28;20495;-76
2022/03/21 02:25:43;;;;;;;19.40;9.27;;;;;;;-3.48;72.66;102439.75;5010845;28;20072;-76
2022/03/21 02:28:11;;;;;;;17.27;10.17;;;;;;;-3.68;71.94;102438.88;5027657;28;20034;-76
2022/03/21 02:30:43;;;;;;;15.27;8.90;;;;;;;-3.66;72.58;102452.63;5027867;28;20163;-76
2022/03/21 02:33:11;;;;;;;19.10;10.47;;;;;;;-3.85;72.55;102417.50;5027875;28;20037;-76
2022/03/21 02:35:36;;;;;;;17.97;9.53;;;;;;;-3.72;72.13;102457.78;5027994;28;20061;-76
2022/03/21 02:38:03;;;;;;;18.60;8.90;;;;;;;-3.79;72.08;102447.63;5027859;28;20128;-76
2022/03/21 02:40:29;;;;;;;18.77;9.90;;;;;;;-4.32;71.57;102355.28;5011285;28;20116;-77
2022/03/21 02:42:54;;;;;;;18.23;9.60;;;;;;;-3.51;71.75;102464.63;5027620;28;20474;-76
2022/03/21 02:45:20;;;;;;;14.53;9.73;;;;;;;-3.53;70.96;102465.16;5027681;28;20033;-76
2022/03/21 02:47:46;;;;;;;18.37;10.07;;;;;;;-3.52;70.85;102444.25;5027623;28;20045;-76
2022/03/21 02:50:16;;;;;;;19.07;9.73;;;;;;;-3.32;70.92;102466.94;5027865;28;20045;-76
2022/03/21 02:52:45;;;;;;;19.83;9.80;;;;;;;-3.37;70.58;102447.78;5027656;28;21194;-75
2022/03/21 02:55:10;;;;;;;17.20;7.53;;;;;;;-3.58;70.18;102404.91;5027561;28;20085;-76
2022/03/21 02:57:35;;;;;;;16.93;8.43;;;;;;;-3.07;69.39;102470.88;5027291;28;20182;-76
2022/03/21 03:00:01;;;;;;;18.40;10.33;;;;;;;-3.04;69.01;102461.16;5012472;28;20046;-76
2022/03/21 03:02:27;;;;;;;18.67;9.43;;;;;;;-3.02;68.88;102457.19;5010524;28;20034;-76
2022/03/21 03:04:52;;;;;;;18.93;9.63;;;;;;;-3.14;69.40;102455.66;5010458;28;20113;-76
2022/03/21 03:07:18;;;;;;;17.23;8.60;;;;;;;-3.28;69.37;102453.97;5010195;28;20030;-76
2022/03/21 03:09:43;;;;;;;17.03;9.37;;;;;;;-3.44;69.24;102457.13;5010154;28;20033;-76
2022/03/21 03:12:09;;;;;;;17.90;9.67;;;;;;;-3.66;69.71;102420.69;5010318;28;20026;-77
2022/03/21 03:14:35;;;;;;;18.03;9.97;;;;;;;-3.52;70.12;102477.97;5010391;28;20046;-76
2022/03/21 03:17:04;;;;;;;18.97;9.67;;;;;;;-3.85;71.21;102446.84;5012922;28;20033;-76
2022/03/21 03:19:29;;;;;;;22.13;9.63;;;;;;;-3.99;71.93;102456.09;5013915;28;20038;-76
2022/03/21 03:21:56;;;;;;;16.40;9.37;;;;;;;-4.06;72.26;102444.31;5013300;28;20041;-77
2022/03/21 03:24:24;;;;;;;19.17;9.63;;;;;;;-4.18;72.62;102429.25;5030544;28;20044;-77
2022/03/21 03:26:50;;;;;;;19.93;10.77;;;;;;;-3.97;72.72;102473.97;5030357;28;20055;-76
2022/03/21 03:29:15;;;;;;;19.10;10.27;;;;;;;-3.99;72.70;102456.09;5013928;28;20041;-76
2022/03/21 03:31:44;;;;;;;16.93;9.50;;;;;;;-3.87;73.35;102464.31;5030885;28;20491;-76
2022/03/21 03:34:09;;;;;;;14.00;7.47;;;;;;;-3.85;72.60;102454.41;5030785;28;20046;-76
2022/03/21 03:36:36;;;;;;;20.27;9.57;;;;;;;-3.80;72.04;102453.38;5030765;28;20118;-76
2022/03/21 03:39:02;;;;;;;16.60;9.90;;;;;;;-3.82;71.76;102467.44;5030706;28;20100;-76
2022/03/21 03:41:28;;;;;;;17.93;9.03;;;;;;;-3.90;72.52;102452.22;5030614;28;20113;-76
2022/03/21 03:43:53;;;;;;;22.90;10.80;;;;;;;-4.14;72.30;102422.25;5030532;28;20120;-76
2022/03/21 03:46:19;;;;;;;19.20;10.47;;;;;;;-4.28;73.33;102412.03;5030454;28;20502;-76
2022/03/21 03:48:46;;;;;;;16.53;10.47;;;;;;;-4.16;73.72;102440.44;5030549;28;20067;-76
2022/03/21 03:51:12;;;;;;;27.23;11.63;;;;;;;-4.15;74.04;102454.84;5030507;28;20126;-76
2022/03/21 03:53:39;;;;;;;18.23;11.23;;;;;;;-4.30;73.96;102418.50;5030106;28;20045;-76
2022/03/21 03:56:06;;;;;;;18.87;11.10;;;;;;;-4.14;73.53;102421.38;5032386;28;20049;-76
2022/03/21 03:58:33;;;;;;;19.47;11.30;;;;;;;-4.14;73.25;102427.28;5033203;28;20026;-76
2022/03/21 04:00:58;;;;;;;18.93;11.20;;;;;;;-4.55;74.20;102381.00;5032821;28;20037;-76
2022/03/21 04:06:08;;;;;;;20.57;11.30;;;;;;;-4.14;73.88;102446.59;5013212;28;20032;-76
2022/03/21 04:08:33;;;;;;;24.20;11.30;;;;;;;-4.02;73.89;102442.22;5013185;28;20034;-76
2022/03/21 04:10:58;;;;;;;19.80;10.27;;;;;;;-4.14;73.62;102432.34;5011835;28;20036;-77
2022/03/21 04:13:24;;;;;;;16.67;9.97;;;;;;;-3.88;73.69;102443.94;5013114;28;20431;-76
2022/03/21 04:15:49;;;;;;;17.90;10.40;;;;;;;-3.99;73.08;102445.09;5013059;28;20477;-76
2022/03/21 04:18:15;;;;;;;18.90;10.77;;;;;;;-4.07;74.11;102439.09;5013187;28;20038;-76
2022/03/21 04:20:40;;;;;;;16.20;10.87;;;;;;;-4.06;73.92;102438.38;5035705;28;20485;-77
2022/03/21 04:23:07;;;;;;;20.00;10.50;;;;;;;-3.98;73.65;102446.91;5050051;28;20483;-76
2022/03/21 04:25:33;;;;;;;21.03;11.03;;;;;;;-4.27;74.21;102401.25;5047243;28;20133;-76
2022/03/21 04:27:59;;;;;;;19.10;10.83;;;;;;;-3.99;73.91;102443.47;5049675;28;20100;-76
2022/03/21 04:30:25;;;;;;;20.40;11.20;;;;;;;-3.87;73.53;102440.72;5049545;28;20045;-76
2022/03/21 04:32:50;;;;;;;19.00;10.17;;;;;;;-3.94;72.74;102424.81;5049717;28;20029;-76
2022/03/21 04:35:16;;;;;;;20.37;10.47;;;;;;;-3.79;70.88;102437.53;5032769;28;20114;-76
2022/03/21 04:37:42;;;;;;;24.60;11.17;;;;;;;-3.75;70.75;102435.59;5049453;28;20032;-76
2022/03/21 04:40:08;;;;;;;21.10;10.80;;;;;;;-4.04;70.90;102418.41;5049526;28;20091;-76
2022/03/21 04:42:35;;;;;;;21.40;12.27;;;;;;;-4.30;72.14;102426.06;5049495;28;20032;-76
2022/03/21 04:45:01;;;;;;;21.47;10.97;;;;;;;-4.47;72.76;102439.06;5049464;28;20043;-76
2022/03/21 04:47:26;;;;;;;16.73;10.13;;;;;;;-4.57;73.29;102431.91;5049314;28;20036;-76
2022/03/21 04:49:52;;;;;;;17.83;10.43;;;;;;;-4.81;72.27;102377.63;5032548;28;20048;-76
2022/03/21 04:52:17;;;;;;;22.90;10.10;;;;;;;-4.42;72.21;102422.91;5034398;28;20046;-76
2022/03/21 04:54:43;;;;;;;30.57;15.97;;;;;;;-4.18;71.82;102422.59;5030478;28;20049;-76
2022/03/21 04:57:10;;;;;;;36.67;17.53;;;;;;;-3.98;71.87;102431.78;5031802;28;20479;-75
2022/03/21 04:59:39;;;;;;;28.97;14.40;;;;;;;-3.76;72.04;102442.97;5031922;28;20030;-75
2022/03/21 05:02:04;;;;;;;46.87;22.07;;;;;;;-3.74;72.13;102426.38;5031913;28;20488;-76
2022/03/21 05:04:31;;;;;;;38.10;20.30;;;;;;;-3.58;71.91;102444.38;5031734;28;20068;-76
2022/03/21 05:06:57;;;;;;;37.27;18.03;;;;;;;-3.48;72.24;102442.28;5031617;28;20068;-75
2022/03/21 05:09:22;;;;;;;33.07;18.80;;;;;;;-3.39;72.32;102442.50;5031784;28;20060;-76
2022/03/21 05:11:48;;;;;;;25.90;14.07;;;;;;;-3.35;72.39;102449.78;5031450;28;20025;-77
2022/03/21 05:14:13;;;;;;;21.07;12.10;;;;;;;-3.53;71.61;102439.91;5031462;28;20037;-76
2022/03/21 05:16:39;;;;;;;27.80;11.23;;;;;;;-3.56;72.26;102442.94;5018481;28;20038;-76
2022/03/21 05:19:05;;;;;;;19.30;10.23;;;;;;;-3.61;72.82;102447.41;5011928;28;20385;-76
2022/03/21 05:21:30;;;;;;;18.67;10.17;;;;;;;-3.85;72.08;102402.34;5018122;28;20042;-76
2022/03/21 05:32:08;;;;;;;16.50;10.60;;;;;;;-3.51;72.77;102453.63;5029236;28;20408;-75
2022/03/21 05:37:17;;;;;;;20.50;13.33;;;;;;;-3.27;73.02;102448.19;5029897;28;20090;-76
2022/03/21 05:42:26;;;;;;;29.63;17.73;;;;;;;-3.14;72.34;102422.81;5030980;28;20132;-76
2022/03/21 05:44:52;;;;;;;22.07;12.30;;;;;;;-2.99;72.67;102450.00;5031070;28;20089;-76
2022/03/21 05:47:17;;;;;;;23.57;10.77;;;;;;;-2.94;73.10;102455.59;5031167;28;20095;-77
2022/03/21 05:49:43;;;;;;;21.30;11.43;;;;;;;-3.15;73.02;102411.81;5029639;28;20025;-76
2022/03/21 05:52:08;;;;;;;18.60;12.17;;;;;;;-2.91;73.53;102452.56;5031226;28;20506;-77
2022/03/21 05:54:34;;;;;;;20.80;12.00;;;;;;;-2.93;73.51;102442.25;5030852;28;20049;-77
2022/03/21 05:56:59;;;;;;;31.37;12.00;;;;;;;-2.73;73.37;102451.38;5029609;28;20461;-76
2022/03/21 06:02:13;;;;;;;24.17;12.93;;;;;;;-2.79;73.05;102380.72;4975858;28;20085;-75
2022/03/21 06:04:38;;;;;;;20.87;12.90;;;;;;;-2.29;73.57;102438.16;4988762;28;20042;-76
2022/03/21 06:07:05;;;;;;;19.87;12.83;;;;;;;-2.12;73.56;102438.56;4988846;28;20046;-74
2022/03/21 06:09:31;;;;;;;22.03;12.70;;;;;;;-1.81;74.18;102459.00;4989192;28;20038;-75
2022/03/21 06:11:56;;;;;;;24.47;12.53;;;;;;;-1.73;74.35;102425.38;4986250;28;20437;-75
2022/03/21 06:14:22;;;;;;;21.60;12.63;;;;;;;-1.39;74.38;102456.28;4986999;28;20516;-76
2022/03/21 06:16:48;;;;;;;23.97;12.30;;;;;;;-1.23;74.15;102447.22;4985530;28;20035;-77
2022/03/21 06:19:14;;;;;;;19.40;12.60;;;;;;;-1.01;74.04;102452.22;4987996;28;20109;-77
2022/03/21 06:21:39;;;;;;;25.07;12.40;;;;;;;-0.84;73.79;102449.97;4987457;28;20120;-76
2022/03/21 06:24:05;;;;;;;21.17;12.93;;;;;;;-0.78;71.29;102421.00;4987683;28;20161;-76
2022/03/21 06:26:31;;;;;;;22.53;12.93;;;;;;;-0.61;70.54;102438.13;4987706;28;20046;-76
2022/03/21 06:28:56;;;;;;;21.93;14.10;;;;;;;-0.38;71.40;102438.19;4987879;28;20112;-77
2022/03/21 06:31:22;;;;;;;22.77;13.70;;;;;;;-0.18;69.47;102441.31;4987929;28;20151;-76
2022/03/21 06:33:47;;;;;;;27.73;14.67;;;;;;;-0.21;67.96;102428.31;5007234;28;20037;-76
2022/03/21 06:36:14;;;;;;;24.57;13.57;;;;;;;-0.08;67.16;102448.34;5007679;28;20543;-82
2022/03/21 06:38:39;;;;;;;22.43;14.23;;;;;;;-0.33;65.64;102399.00;5004555;28;20103;-76
2022/03/21 06:41:06;;;;;;;20.47;13.83;;;;;;;0.08;65.87;102438.25;5008911;28;20022;-74
2022/03/21 06:43:32;;;;;;;26.57;14.30;;;;;;;0.08;65.55;102428.09;5007188;28;20038;-75
2022/03/21 06:45:58;;;;;;;21.17;12.80;;;;;;;0.10;65.45;102436.78;5007152;28;20436;-77
2022/03/21 06:48:25;;;;;;;22.50;13.30;;;;;;;0.28;65.41;102429.41;5033087;28;20435;-75
2022/03/21 06:50:53;;;;;;;18.63;11.90;;;;;;;0.48;64.74;102429.91;5031022;28;20029;-75
2022/03/21 06:53:19;;;;;;;30.77;17.60;;;;;;;0.65;63.46;102425.78;5031285;28;20046;-76
2022/03/21 06:55:45;;;;;;;19.73;12.73;;;;;;;0.86;63.44;102424.66;5028683;28;20069;-77
2022/03/21 06:58:13;;;;;;;20.10;12.93;;;;;;;0.94;63.33;102416.19;5026911;28;20029;-79
2022/03/21 07:00:42;;;;;;;20.50;12.80;;;;;;;1.12;62.99;102412.19;5023477;28;20040;-77
2022/03/21 07:03:08;;;;;;;27.20;15.40;;;;;;;1.26;63.26;102408.56;5021674;28;20033;-79
2022/03/21 07:05:35;;;;;;;17.13;10.80;;;;;;;1.58;59.18;102421.22;5021471;28;20034;-78
2022/03/21 07:08:00;;;;;;;17.23;11.33;;;;;;;1.83;60.90;102402.50;5023451;28;20037;-78
2022/03/21 07:10:26;;;;;;;18.40;12.47;;;;;;;2.16;55.49;102379.56;5033802;28;20030;-78
2022/03/21 07:12:52;;;;;;;16.13;9.57;;;;;;;2.45;51.58;102370.53;5033601;28;20075;-78
2022/03/21 07:15:17;;;;;;;21.77;13.83;;;;;;;2.63;51.39;102382.56;5033764;28;20041;-78
2022/03/21 07:17:42;;;;;;;18.80;12.13;;;;;;;3.03;50.86;102383.97;5033681;28;20029;-78
2022/03/21 07:20:12;;;;;;;14.33;7.13;;;;;;;3.45;46.23;102381.97;5033585;28;20021;-78
2022/03/21 07:22:39;;;;;;;10.95;5.65;;;;;;;3.60;44.41;102375.81;5033629;28;20439;-78
2022/03/21 07:25:06;;;;;;;12.80;5.70;;;;;;;3.78;45.33;102384.31;5033378;28;20034;-78
2022/03/21 07:27:32;;;;;;;10.90;6.23;;;;;;;3.80;43.36;102359.81;5033644;28;20025;-79
2022/03/21 07:29:58;;;;;;;11.23;6.07;;;;;;;3.75;42.97;102309.94;5033186;28;20025;-80
2022/03/21 07:32:23;;;;;;;11.47;4.13;;;;;;;4.01;40.36;102354.91;5032937;28;20029;-79
2022/03/21 07:34:49;;;;;;;12.80;4.30;;;;;;;4.10;41.90;102353.25;5033463;28;20064;-79
2022/03/21 07:37:14;;;;;;;12.87;6.47;;;;;;;4.05;42.54;102308.47;5033054;28;20068;-77
2022/03/21 07:39:40;;;;;;;9.13;5.10;;;;;;;4.56;39.17;102355.69;5033252;28;20025;-77
2022/03/21 07:42:07;;;;;;;9.90;4.30;;;;;;;4.73;39.72;102360.69;5032869;28;20033;-77
2022/03/21 07:47:20;;;;;;;8.20;4.82;;;;;;;4.82;37.76;102337.59;5033282;28;20040;-78
2022/03/21 07:49:46;;;;;;;8.23;4.88;;;;;;;4.97;37.63;102322.69;5032766;28;20032;-78
2022/03/21 07:52:17;;;;;;;9.88;4.93;;;;;;;5.12;35.13;102346.22;5032860;28;20049;-78
2022/03/21 07:54:42;;;;;;;7.57;4.40;;;;;;;5.26;33.77;102347.44;5032858;28;20173;-78
2022/03/21 07:57:08;;;;;;;9.82;4.65;;;;;;;5.08;34.84;102304.06;5032546;28;20539;-78
2022/03/21 07:59:34;;;;;;;8.15;4.50;;;;;;;5.05;33.94;102284.97;5032567;28;20035;-76
2022/03/21 08:01:59;;;;;;;8.38;3.92;;;;;;;5.44;33.86;102335.38;5032833;28;20033;-76
2022/03/21 08:04:25;;;;;;;9.50;5.57;;;;;;;5.51;32.47;102328.34;5032658;28;20021;-76
2022/03/21 08:06:53;;;;;;;8.50;4.57;;;;;;;5.66;33.63;102331.34;5032788;28;20045;-76
2022/03/21 08:09:18;;;;;;;8.95;4.65;;;;;;;5.76;33.04;102327.91;5032407;28;20075;-76
2022/03/21 08:11:45;;;;;;;7.43;4.90;;;;;;;5.51;31.77;102305.28;5030526;28;20029;-78
2022/03/21 08:14:11;;;;;;;9.20;4.70;;;;;;;5.74;32.03;102326.88;5029711;28;20095;-76
2022/03/21 08:16:37;;;;;;;8.15;4.15;;;;;;;5.96;31.69;102336.44;5023543;28;20072;-77
2022/03/21 08:19:02;;;;;;;7.95;4.15;;;;;;;6.15;31.50;102329.56;5028433;28;20053;-77
2022/03/21 08:21:28;;;;;;;9.13;4.63;;;;;;;6.07;31.42;102307.50;5012649;28;20710;-76
2022/03/21 08:23:53;;;;;;;9.90;4.70;;;;;;;6.27;31.01;102322.00;5012583;28;20112;-77
2022/03/21 08:26:19;;;;;;;10.35;5.13;;;;;;;6.13;32.05;102309.69;5012580;28;20018;-77
2022/03/21 08:28:45;;;;;;;7.13;4.05;;;;;;;6.25;30.13;102325.22;5012637;28;20026;-77
2022/03/21 08:31:13;;;;;;;7.78;4.20;;;;;;;6.24;30.70;102300.34;5012664;28;20030;-77
2022/03/21 08:33:39;;;;;;;6.95;4.25;;;;;;;6.19;30.18;102305.06;5027864;28;20030;-77
2022/03/21 08:36:04;;;;;;;6.40;4.15;;;;;;;6.15;30.50;102303.03;5032383;28;20032;-78
2022/03/21 08:38:30;;;;;;;35.63;9.35;;;;;;;6.17;30.38;102305.72;5032229;28;20033;-77
2022/03/21 08:40:57;;;;;;;10.20;6.35;;;;;;;6.23;31.49;102314.84;5031906;28;20061;-77
2022/03/21 08:43:24;;;;;;;9.15;5.82;;;;;;;6.35;31.52;102316.63;5032156;28;20028;-77
2022/03/21 08:45:49;;;;;;;7.75;5.28;;;;;;;6.53;33.36;102310.47;5031954;28;20090;-77
2022/03/21 08:48:15;;;;;;;13.25;6.43;;;;;;;6.82;31.24;102311.06;5012907;28;20045;-78
2022/03/21 08:50:40;;;;;;;11.63;7.57;;;;;;;6.73;31.06;102298.38;5031891;28;20033;-77
2022/03/21 08:53:07;;;;;;;6.40;4.50;;;;;;;6.57;28.99;102232.09;5031936;28;20040;-77
2022/03/21 08:55:32;;;;;;;14.00;8.50;;;;;;;7.04;30.63;102303.44;5031510;28;20061;-77
2022/03/21 08:57:57;;;;;;;7.72;4.05;;;;;;;6.99;30.81;102289.34;5031676;28;20036;-77
2022/03/21 09:00:23;;;;;;;10.18;5.85;;;;;;;7.08;30.46;102308.06;5031789;28;20032;-77
2022/03/21 09:02:54;;;;;;;8.35;5.53;;;;;;;7.02;29.78;102292.16;5030447;28;20056;-77
2022/03/21 09:05:21;;;;;;;13.15;5.55;;;;;;;7.09;31.39;102304.69;5031348;28;20025;-76
2022/03/21 09:07:46;;;;;;;7.35;4.43;;;;;;;6.95;30.04;102263.41;5031642;28;20028;-76
2022/03/21 09:10:14;;;;;;;6.07;4.10;;;;;;;7.30;30.72;102290.09;5029890;28;20113;-76
2022/03/21 09:12:40;;;;;;;13.65;4.53;;;;;;;7.46;32.95;102276.81;5030245;28;20104;-77
2022/03/21 09:15:06;;;;;;;7.25;3.63;;;;;;;7.64;31.39;102284.16;5028313;28;20109;-78
2022/03/21 09:17:31;;;;;;;6.60;5.00;;;;;;;7.61;30.81;102285.75;5026434;28;20112;-78
2022/03/21 09:19:56;;;;;;;7.90;3.38;;;;;;;7.75;30.92;102268.81;5013039;28;20412;-78
2022/03/21 09:22:22;;;;;;;6.57;3.65;;;;;;;7.93;30.24;102289.88;5010421;28;20049;-78
2022/03/21 09:24:47;;;;;;;9.40;3.70;;;;;;;7.80;30.13;102252.84;5011263;28;20496;-77
2022/03/21 09:27:13;;;;;;;6.90;3.78;;;;;;;8.12;30.54;102288.72;5011593;28;20026;-77
2022/03/21 09:29:39;;;;;;;6.85;3.20;;;;;;;8.27;29.13;102278.72;5011374;28;20121;-75
2022/03/21 09:32:05;;;;;;;10.27;5.00;;;;;;;8.12;29.48;102277.56;5011488;28;20041;-76
2022/03/21 09:34:32;;;;;;;6.90;4.00;;;;;;;8.20;31.06;102290.22;5011244;28;20037;-76
2022/03/21 09:36:57;;;;;;;7.90;4.68;;;;;;;8.15;29.78;102276.13;5027408;28;20112;-76
2022/03/21 09:39:23;;;;;;;8.20;3.97;;;;;;;8.18;31.13;102263.47;5031124;28;20032;-76
2022/03/21 09:41:48;;;;;;;8.75;4.25;;;;;;;8.17;29.08;102240.22;5030448;28;20041;-76
2022/03/21 09:44:14;;;;;;;13.75;4.00;;;;;;;8.30;29.51;102270.31;5031133;28;20388;-76
2022/03/21 09:46:43;;;;;;;8.90;4.57;;;;;;;8.49;28.64;102258.09;5031236;28;20076;-77
2022/03/21 09:49:11;;;;;;;8.93;4.95;;;;;;;8.58;29.28;102270.75;5030900;28;20061;-76
2022/03/21 09:51:39;;;;;;;5.47;3.20;;;;;;;8.78;28.44;102254.19;5029822;28;20029;-76
2022/03/21 09:54:05;;;;;;;4.93;2.95;;;;;;;8.77;29.01;102223.16;5044616;28;20506;-75
2022/03/21 09:56:30;;;;;;;7.10;4.55;;;;;;;9.10;30.58;102254.72;5018417;28;20050;-76
2022/03/21 09:58:59;;;;;;;8.65;4.65;;;;;;;8.93;28.47;102246.66;5029513;28;20069;-75
2022/03/21 10:01:26;;;;;;;8.53;4.33;;;;;;;8.98;28.44;102257.31;5030541;28;20492;-77
2022/03/21 10:03:52;;;;;;;17.80;10.18;;;;;;;8.49;27.98;102172.25;5030381;28;20029;-77
2022/03/21 10:06:35;;;;;;;6.97;3.70;;;;;;;8.83;27.76;102216.78;5030528;28;20088;-78
2022/03/21 10:09:18;;;;;;;6.53;3.72;;;;;;;9.21;27.27;102233.22;5030415;28;20458;-77
2022/03/21 10:11:48;;;;;;;8.77;5.50;;;;;;;9.48;28.29;102229.09;5030100;28;20521;-77
2022/03/21 10:14:24;;;;;;;6.22;3.63;;;;;;;9.62;29.53;102206.84;5030312;28;20571;-77
2022/03/21 10:16:58;;;;;;;5.35;3.17;;;;;;;9.94;28.75;102222.72;5030413;28;20077;-78
2022/03/21 10:19:24;;;;;;;5.95;3.00;;;;;;;9.76;29.44;102214.59;5029982;28;20029;-77
2022/03/21 10:22:11;;;;;;;18.23;4.90;;;;;;;9.94;28.10;102210.69;5021820;28;20045;-77
2022/03/21 10:24:42;;;;;;;11.43;3.78;;;;;;;9.92;28.38;102209.72;5027001;28;20033;-75
2022/03/21 10:27:26;;;;;;;9.18;3.75;;;;;;;10.16;27.77;102205.28;5034273;28;20423;-78
2022/03/21 10:29:54;;;;;;;15.40;4.10;;;;;;;10.09;29.87;102160.91;5033952;28;20030;-77
2022/03/21 10:32:42;;;;;;;12.43;4.82;;;;;;;10.39;30.40;102199.91;5034222;28;20168;-75
2022/03/21 10:35:16;;;;;;;6.55;3.30;;;;;;;10.41;26.82;102196.63;5034202;28;20083;-75
2022/03/21 10:37:46;;;;;;;7.93;3.28;;;;;;;10.52;27.75;102184.41;5036848;28;20025;-76
2022/03/21 10:40:23;;;;;;;5.60;3.25;;;;;;;10.55;26.79;102166.53;5033594;28;20087;-76
2022/03/21 10:43:00;;;;;;;6.95;4.15;;;;;;;10.23;27.79;102151.50;5034126;28;20545;-76
2022/03/21 10:45:42;;;;;;;8.65;4.40;;;;;;;10.60;28.13;102170.28;5023211;28;20384;-73
2022/03/21 10:48:13;;;;;;;6.47;4.40;;;;;;;10.37;28.16;102143.00;5031288;28;20026;-73
2022/03/21 10:50:41;;;;;;;6.78;3.40;;;;;;;10.51;27.76;102162.84;5033271;28;20098;-73
2022/03/21 10:53:39;;;;;;;7.30;3.72;;;;;;;10.48;26.96;102138.50;5033300;28;20438;-73
2022/03/21 10:56:10;;;;;;;5.60;3.38;;;;;;;10.64;26.75;102177.47;5009159;28;20113;-72
2022/03/21 10:58:44;;;;;;;6.50;3.10;;;;;;;10.42;25.75;102122.63;5007952;28;20111;-72
2022/03/21 11:01:24;;;;;;;11.90;2.95;;;;;;;10.47;26.56;102124.72;5010943;28;20586;-73
2022/03/21 11:03:51;;;;;;;5.97;2.72;;;;;;;10.75;27.69;102157.47;5011036;28;20112;-73
2022/03/21 11:06:18;;;;;;;4.72;2.80;;;;;;;10.87;26.02;102164.22;5010825;28;20613;-73
2022/03/21 11:08:50;;;;;;;8.88;3.42;;;;;;;11.02;26.63;102141.91;5010838;28;20477;-73
2022/03/21 11:11:16;;;;;;;6.85;2.60;;;;;;;10.73;25.62;102120.31;5010038;28;20034;-73
2022/03/21 11:13:42;;;;;;;7.18;3.10;;;;;;;10.59;27.45;102090.16;5010383;28;20041;-73
2022/03/21 11:16:09;;;;;;;8.63;4.20;;;;;;;10.97;27.29;102120.94;5010708;28;20058;-73
2022/03/21 11:18:35;;;;;;;10.20;4.60;;;;;;;11.11;26.85;102123.50;5008329;28;20065;-73
2022/03/21 11:21:01;;;;;;;11.35;4.43;;;;;;;11.02;28.53;102134.16;5010447;28;20144;-73
2022/03/21 11:23:27;;;;;;;5.80;3.45;;;;;;;10.97;26.73;102079.59;5010523;28;20033;-73
2022/03/21 11:26:00;;;;;;;6.35;3.10;;;;;;;11.37;26.69;102119.03;5010176;28;20037;-73
2022/03/21 11:28:41;;;;;;;8.57;3.60;;;;;;;11.25;25.79;102132.09;5010467;28;20034;-74
2022/03/21 11:31:26;;;;;;;4.78;2.80;;;;;;;11.31;25.63;102132.47;4993818;28;20034;-73
2022/03/21 11:34:11;;;;;;;7.97;3.10;;;;;;;11.41;26.41;102121.00;5028488;28;20033;-73
2022/03/21 11:36:56;;;;;;;6.93;3.22;;;;;;;11.57;25.43;102109.88;5032286;28;20036;-73
2022/03/21 11:39:22;;;;;;;8.27;3.10;;;;;;;11.71;25.84;102108.09;5031160;28;20029;-72
2022/03/21 11:42:11;;;;;;;18.70;9.15;;;;;;;11.41;26.57;102102.88;5032601;28;20464;-73
2022/03/21 11:44:38;;;;;;;8.35;4.45;;;;;;;11.32;26.85;102095.47;5032020;28;20033;-73